Time;durP1;ratioP1;P1;durP2;ratioP2;P2;SDS_P1;SDS_P2;PMS_P1;PMS_P2;Temp;Humidity;BMP_temperature;BMP_pressure;BME280_temperature;BME280_humidity;BME280_pressure;Samples;Min_cycle;Max_cycle;Signal;HPM_P1;HPM_P2
2023/08/14 00:01:08;;;;;;;;;21.00;19.33;;;;;17.21;100.00;100027.75;6310590;20;3564839;-54
2023/08/14 00:03:37;;;;;;;;;20.00;20.00;;;;;17.20;100.00;100020.63;6278943;20;3565055;-52
2023/08/14 00:06:06;;;;;;;;;23.00;21.67;;;;;17.27;100.00;100016.41;6275975;20;3576343;-54
2023/08/14 00:08:35;;;;;;;;;26.00;23.67;;;;;17.18;100.00;100025.31;6274362;20;3594139;-54
2023/08/14 00:11:04;;;;;;;;;18.00;17.33;;;;;17.09;100.00;100023.38;6306734;20;3565952;-55
2023/08/14 00:13:55;;;;;;;;;23.33;21.00;;;;;17.20;100.00;100033.31;6276016;20;3586858;-54
2023/08/14 00:16:27;;;;;;;;;23.67;22.67;;;;;17.13;100.00;100032.97;6278256;20;3585700;-54
2023/08/14 00:18:55;;;;;;;;;22.33;21.67;;;;;17.08;100.00;100029.78;6277768;20;3585742;-55
2023/08/14 00:21:24;;;;;;;;;24.00;22.67;;;;;17.32;100.00;100025.03;6277971;20;3588839;-50
2023/08/14 00:23:53;;;;;;;;;25.00;23.00;;;;;17.25;100.00;100029.22;6278146;20;3594468;-55
2023/08/14 00:26:22;;;;;;;;;23.00;22.00;;;;;16.94;100.00;100025.50;6275041;20;3580462;-51
2023/08/14 00:28:51;;;;;;;;;24.67;23.67;;;;;16.91;100.00;100033.91;6272085;20;3588811;-54
2023/08/14 00:31:20;;;;;;;;;25.33;24.00;;;;;17.00;100.00;100029.56;6307985;20;3599304;-55
2023/08/14 00:33:50;;;;;;;;;26.00;22.67;;;;;16.98;100.00;100031.53;6282667;20;3589874;-56
2023/08/14 00:36:19;;;;;;;;;26.33;23.67;;;;;17.15;100.00;100033.69;6280014;20;3599345;-53
2023/08/14 00:38:48;;;;;;;;;24.00;24.00;;;;;17.10;100.00;100028.66;6278798;20;3588823;-53
2023/08/14 00:41:17;;;;;;;;;26.33;22.67;;;;;17.09;100.00;100028.81;6285142;20;3584664;-55
2023/08/14 00:43:46;;;;;;;;;25.33;25.33;;;;;17.10;100.00;100030.50;6283399;20;3602432;-54
2023/08/14 00:46:15;;;;;;;;;22.67;20.67;;;;;17.11;100.00;100032.22;6281872;20;3575328;-55
2023/08/14 00:48:44;;;;;;;;;22.67;22.67;;;;;17.03;100.00;100042.84;6275675;20;3589869;-52
2023/08/14 00:51:13;;;;;;;;;24.33;22.00;;;;;16.86;100.00;100036.97;6279529;20;3577438;-51
2023/08/14 00:53:43;;;;;;;;;25.00;23.33;;;;;16.86;100.00;100039.69;6274647;20;2867117;-53
2023/08/14 00:56:12;;;;;;;;;21.67;21.67;;;;;16.68;100.00;100042.00;6309971;20;3583806;-54
2023/08/14 00:58:41;;;;;;;;;24.33;22.00;;;;;16.71;100.00;100030.06;6277896;20;3587766;-55
2023/08/14 01:01:10;;;;;;;;;22.00;21.00;;;;;16.69;100.00;100037.44;6280029;20;3592667;-52
2023/08/14 01:03:39;;;;;;;;;23.00;23.00;;;;;16.74;100.00;100032.50;6277704;20;3593058;-53
2023/08/14 01:06:08;;;;;;;;;22.67;21.00;;;;;16.81;100.00;100025.66;6282124;20;3583601;-52
2023/08/14 01:08:38;;;;;;;;;26.67;22.33;;;;;16.70;100.00;100039.19;6276568;20;2846200;-50
2023/08/14 01:11:38;;;;;;;;;24.67;23.33;;;;;16.52;100.00;100029.84;6311372;20;3594021;-52
2023/08/14 01:14:29;;;;;;;;;22.67;22.00;;;;;16.75;100.00;100039.69;6275168;20;2838971;-51
2023/08/14 01:17:07;;;;;;;;;23.00;23.00;;;;;16.72;100.00;100030.91;6308411;20;3587998;-53
2023/08/14 01:19:43;;;;;;;;;25.67;24.33;;;;;16.33;100.00;100042.16;6279267;20;3590920;-53
2023/08/14 01:22:42;;;;;;;;;23.33;22.67;;;;;16.34;100.00;100052.00;6275766;20;3589839;-49
2023/08/14 01:25:31;;;;;;;;;29.67;25.00;;;;;16.77;100.00;100048.59;6278721;20;3598291;-50
2023/08/14 01:28:02;;;;;;;;;25.00;24.00;;;;;16.65;100.00;100047.69;6279753;20;3599209;-52
2023/08/14 01:30:32;;;;;;;;;21.67;20.67;;;;;16.22;100.00;100039.47;6279277;20;3584815;-51
2023/08/14 01:33:02;;;;;;;;;21.00;21.00;;;;;16.31;100.00;100049.53;6281781;20;3566940;-49
2023/08/14 01:36:20;;;;;;;;;21.00;21.00;;;;;16.35;100.00;100044.72;6309486;20;3585059;-52
2023/08/14 01:39:09;;;;;;;;;19.33;19.33;;;;;16.36;100.00;100047.34;6278329;20;3569006;-55
2023/08/14 01:42:22;;;;;;;;;23.33;21.00;;;;;16.42;100.00;100046.81;6275067;20;2844144;-55
2023/08/14 01:45:01;;;;;;;;;24.67;21.67;;;;;16.26;100.00;100053.59;6304908;20;3584741;-52
2023/08/14 01:47:33;;;;;;;;;27.33;23.67;;;;;16.00;100.00;100049.25;6273849;20;3596107;-55
2023/08/14 01:50:03;;;;;;;;;22.67;22.67;;;;;15.96;100.00;100049.63;6306946;20;3580663;-54
2023/08/14 01:52:32;;;;;;;;;20.00;20.00;;;;;15.97;100.00;100046.78;6271664;20;3578551;-53
2023/08/14 01:55:00;;;;;;;;;23.33;22.00;;;;;15.99;100.00;100044.84;6274570;20;3582550;-52
2023/08/14 01:57:31;;;;;;;;;22.33;22.33;;;;;16.01;100.00;100053.69;6275981;20;3580456;-51
2023/08/14 02:00:01;;;;;;;;;26.67;22.00;;;;;16.06;100.00;100049.75;6312307;20;3598219;-53
2023/08/14 02:02:29;;;;;;;;;25.33;25.33;;;;;15.94;100.00;100052.44;6279581;20;3599376;-51
2023/08/14 02:04:58;;;;;;;;;20.67;20.67;;;;;16.18;100.00;100054.22;6282484;20;3571085;-51
2023/08/14 02:07:27;;;;;;;;;23.33;22.00;;;;;16.19;100.00;100050.50;6308127;20;3575277;-53
2023/08/14 02:09:56;;;;;;;;;24.67;23.00;;;;;16.24;100.00;100053.72;6275762;20;3590387;-53
2023/08/14 02:12:26;;;;;;;;;22.33;22.33;;;;;16.01;100.00;100053.69;6310596;20;3588308;-52
2023/08/14 02:14:55;;;;;;;;;19.33;19.33;;;;;16.00;100.00;100057.38;6281446;20;3576398;-48
2023/08/14 02:17:24;;;;;;;;;26.00;22.00;;;;;15.72;100.00;100060.53;6281174;20;3578399;-53
2023/08/14 02:19:55;;;;;;;;;25.38;22.75;;;;;16.16;100.00;100059.75;6300844;20;3584677;-53
2023/08/14 02:22:24;;;;;;;;;23.33;21.67;;;;;16.12;100.00;100060.13;6279436;20;3582706;-53
2023/08/14 02:24:53;;;;;;;;;25.33;24.33;;;;;15.86;100.00;100065.72;6278664;20;3599238;-54
2023/08/14 02:27:21;;;;;;;;;25.00;24.00;;;;;15.68;100.00;100061.69;6279511;20;3589844;-52
2023/08/14 02:29:50;;;;;;;;;20.00;19.67;;;;;15.79;100.00;100061.75;6278337;20;3584684;-50
2023/08/14 02:32:19;;;;;;;;;22.67;20.00;;;;;15.72;100.00;100061.38;6279434;20;3572283;-53
2023/08/14 02:34:52;;;;;;;;;22.00;20.33;;;;;15.75;100.00;100063.00;6276941;20;3575339;-53
2023/08/14 02:37:21;;;;;;;;;26.00;23.33;;;;;15.66;100.00;100059.09;6286119;20;3594122;-51
2023/08/14 02:39:50;;;;;;;;;23.67;22.33;;;;;15.73;100.00;100054.97;6278938;20;3585797;-50
2023/08/14 02:42:20;;;;;;;;;29.33;24.67;;;;;15.53;100.00;100070.03;6277198;20;3603410;-54
2023/08/14 02:44:50;;;;;;;;;26.67;24.00;;;;;15.48;100.00;100066.81;6280567;20;3595152;-51
2023/08/14 02:47:19;;;;;;;;;22.33;21.67;;;;;15.39;100.00;100067.47;6279864;20;3577542;-53
2023/08/14 02:49:49;;;;;;;;;24.33;22.33;;;;;15.44;100.00;100065.28;6272951;20;3590910;-52
2023/08/14 02:52:18;;;;;;;;;26.67;26.67;;;;;15.50;100.00;100061.25;6308086;20;3604434;-51
2023/08/14 02:54:47;;;;;;;;;25.00;23.67;;;;;15.49;100.00;100060.41;6274594;20;3596127;-54
2023/08/14 02:57:15;;;;;;;;;23.33;23.00;;;;;15.54;100.00;100057.34;6279500;20;3596119;-52
2023/08/14 02:59:44;;;;;;;;;27.00;23.00;;;;;15.49;100.00;100052.28;6278793;20;3594114;-50
2023/08/14 03:02:14;;;;;;;;;24.67;24.67;;;;;15.56;100.00;100047.25;6275927;20;3594046;-50
2023/08/14 03:04:43;;;;;;;;;26.33;22.67;;;;;15.52;100.00;100052.03;6311076;20;3591952;-51
2023/08/14 03:07:11;;;;;;;;;23.67;23.67;;;;;15.22;100.00;100049.81;6278513;20;3585716;-52
2023/08/14 03:09:40;;;;;;;;;20.33;20.00;;;;;15.34;100.00;100061.56;6278235;20;3575399;-50
2023/08/14 03:12:09;;;;;;;;;27.00;24.00;;;;;15.09;100.00;100063.41;6276559;20;3592204;-51
2023/08/14 03:14:38;;;;;;;;;25.67;25.33;;;;;15.39;100.00;100062.06;6276746;20;3585668;-50
2023/08/14 03:17:07;;;;;;;;;28.67;28.00;;;;;15.30;100.00;100062.78;6279818;20;3604571;-54
2023/08/14 03:19:35;;;;;;;;;27.00;24.33;;;;;15.41;100.00;100070.94;6275590;20;3612898;-50
2023/08/14 03:22:05;;;;;;;;;27.00;23.00;;;;;15.06;100.00;100066.34;6278448;20;3585817;-53
2023/08/14 03:24:34;;;;;;;;;24.67;22.33;;;;;15.05;100.00;100070.00;6310158;20;3575745;-52
2023/08/14 03:27:03;;;;;;;;;22.33;22.33;;;;;15.15;100.00;100065.63;6278154;20;3581571;-49
2023/08/14 03:29:31;;;;;;;;;22.50;21.00;;;;;15.23;100.00;100066.91;6276246;20;2845034;-48
2023/08/14 03:32:01;;;;;;;;;25.67;23.33;;;;;15.26;100.00;100062.13;6269736;20;2841186;-51
2023/08/14 03:34:30;;;;;;;;;22.67;22.67;;;;;15.44;100.00;100065.28;6304840;20;2860764;-53
2023/08/14 03:36:59;;;;;;;;;31.33;27.67;;;;;15.34;100.00;100062.41;6309943;20;3603367;-53
2023/08/14 03:39:28;;;;;;;;;26.00;23.33;;;;;15.45;100.00;100066.16;6277222;20;3596150;-52
2023/08/14 03:41:57;;;;;;;;;25.67;24.00;;;;;15.10;100.00;100067.81;6279396;20;3600301;-49
2023/08/14 03:44:25;;;;;;;;;26.67;25.00;;;;;15.37;100.00;100074.84;6276810;20;3587831;-48
2023/08/14 03:46:54;;;;;;;;;28.00;25.00;;;;;15.54;100.00;100077.16;6276718;20;3595166;-51
2023/08/14 03:49:23;;;;;;;;;32.00;28.67;;;;;15.34;100.00;100077.78;6276182;20;3583805;-51
2023/08/14 03:51:52;;;;;;;;;26.67;26.67;;;;;15.20;100.00;100077.97;6269943;20;3606513;-51
2023/08/14 03:54:20;;;;;;;;;26.67;24.33;;;;;15.36;100.00;100073.13;6273871;20;3587752;-51
2023/08/14 03:56:49;;;;;;;;;23.00;22.67;;;;;15.37;100.00;100064.03;6278531;20;3582655;-50
2023/08/14 03:59:18;;;;;;;;;25.33;25.00;;;;;15.54;100.00;100074.44;6272358;20;3597267;-48
2023/08/14 04:01:47;;;;;;;;;28.67;25.67;;;;;15.78;100.00;100079.84;6272512;20;3601363;-52
2023/08/14 04:04:16;;;;;;;;;23.33;22.00;;;;;15.64;100.00;100082.75;6307046;20;3583656;-51
2023/08/14 04:06:47;;;;;;;;;23.33;23.00;;;;;15.61;100.00;100084.78;6287552;20;3582760;-49
2023/08/14 04:09:17;;;;;;;;;21.33;21.33;;;;;15.51;100.00;100082.81;6312369;20;3585713;-48
2023/08/14 04:11:46;;;;;;;;;21.00;21.00;;;;;15.52;100.00;100087.22;6278547;20;3584655;-53
2023/08/14 04:14:15;;;;;;;;;26.33;25.33;;;;;15.50;100.00;100085.63;6311014;20;3591943;-52
2023/08/14 04:16:45;;;;;;;;;27.00;26.67;;;;;15.68;100.00;100083.34;6283078;20;3598173;-52
2023/08/14 04:19:17;;;;;;;;;27.33;26.00;;;;;15.56;100.00;100094.16;6279703;20;3594000;-53
2023/08/14 04:21:47;;;;;;;;;25.00;25.00;;;;;15.61;100.00;100098.31;6281506;20;2856660;-52
2023/08/14 04:24:16;;;;;;;;;27.00;23.33;;;;;16.02;100.00;100098.75;6313031;20;3590028;-51
2023/08/14 04:26:46;;;;;;;;;27.33;26.33;;;;;16.17;100.00;100099.41;6279840;20;3596178;-52
2023/08/14 04:29:16;;;;;;;;;22.67;22.33;;;;;16.17;100.00;100098.56;6311744;20;3586708;-52
2023/08/14 04:31:46;;;;;;;;;30.00;27.00;;;;;16.22;100.00;100099.06;6282274;20;3608676;-51
2023/08/14 04:34:14;;;;;;;;;25.33;25.00;;;;;16.61;100.00;100099.56;6283789;20;3594035;-49
2023/08/14 04:36:43;;;;;;;;;25.00;23.67;;;;;16.83;100.00;100099.59;6284822;20;3589923;-52
2023/08/14 04:39:12;;;;;;;;;25.67;23.67;;;;;16.72;100.00;100102.31;6282630;20;3590877;-53
2023/08/14 04:41:41;;;;;;;;;24.67;21.33;;;;;16.83;100.00;100110.47;6277159;20;3577347;-49
2023/08/14 04:44:10;;;;;;;;;23.50;22.00;;;;;19.99;94.77;100122.00;6283034;20;3525265;-51
2023/08/14 04:46:39;;;;;;;;;21.67;21.00;;;;;22.35;80.92;100124.13;6312431;20;3585683;-50
2023/08/14 04:49:26;;;;;;;;;19.67;19.67;;;;;23.91;71.31;100138.53;6281026;20;3575295;-53
2023/08/14 04:51:55;;;;;;;;;20.67;20.67;;;;;21.14;79.93;100133.59;6277811;20;3586235;-55
2023/08/14 04:54:27;;;;;;;;;24.67;21.67;;;;;18.87;92.93;100127.63;6280101;20;3584642;-57
2023/08/14 04:56:55;;;;;;;;;21.00;19.00;;;;;18.12;98.96;100126.03;6281060;20;2841174;-55
2023/08/14 04:59:24;;;;;;;;;25.67;22.00;;;;;18.58;99.69;100128.31;6281135;20;3596113;-53
2023/08/14 05:01:53;;;;;;;;;24.67;23.67;;;;;22.06;81.77;100137.16;6280878;20;3582589;-56
2023/08/14 05:04:23;;;;;;;;;25.33;24.33;;;;;19.94;88.26;100136.03;6282301;20;3591945;-54
2023/08/14 05:06:52;;;;;;;;;23.00;19.50;;;;;18.46;98.16;100134.84;6281146;20;2837778;-51
2023/08/14 05:09:22;;;;;;;;;23.33;23.33;;;;;18.23;100.00;100131.38;6277824;20;2847397;-54
2023/08/14 05:11:56;;;;;;;;;23.00;23.00;;;;;18.61;100.00;100133.47;6309895;20;3584842;-56
2023/08/14 05:14:25;;;;;;;;;25.00;24.67;;;;;18.73;100.00;100130.69;6280207;20;3596258;-55
2023/08/14 05:16:54;;;;;;;;;29.00;24.67;;;;;18.55;100.00;100127.72;6280899;20;3602356;-53
2023/08/14 05:19:23;;;;;;;;;27.33;25.00;;;;;18.84;100.00;100130.63;6279272;20;3585884;-52
2023/08/14 05:21:52;;;;;;;;;22.67;22.67;;;;;19.58;98.68;100137.56;6285828;20;3588885;-51
2023/08/14 05:24:20;;;;;;;;;22.00;22.00;;;;;20.49;91.81;100138.13;6282672;20;3583593;-53
2023/08/14 05:26:49;;;;;;;;;24.67;23.67;;;;;20.88;90.89;100143.47;6282642;20;3593023;-56
2023/08/14 05:29:18;;;;;;;;;26.00;25.00;;;;;22.32;82.79;100153.66;6278425;20;3598368;-52
2023/08/14 05:31:47;;;;;;;;;22.33;22.33;;;;;23.56;75.83;100156.06;6278721;20;3592078;-55
2023/08/14 05:34:16;;;;;;;;;26.67;26.00;;;;;21.41;83.23;100151.03;6282198;20;3604459;-52
2023/08/14 05:36:44;;;;;;;;;22.67;22.33;;;;;20.77;89.37;100153.59;6282126;20;3591940;-55
2023/08/14 05:39:13;;;;;;;;;27.33;24.33;;;;;20.58;90.94;100153.63;6278361;20;3596095;-56
2023/08/14 05:41:42;;;;;;;;;23.00;23.00;;;;;21.85;86.15;100154.75;6278528;20;3598211;-57
2023/08/14 05:44:11;;;;;;;;;25.00;25.00;;;;;24.49;72.47;100158.63;6281748;20;3602356;-55
2023/08/14 05:46:43;;;;;;;;;21.00;21.00;;;;;21.19;84.56;100155.84;6310185;20;3583638;-56
2023/08/14 05:49:17;;;;;;;;;24.33;22.67;;;;;21.71;84.73;100152.56;6276118;20;3591020;-56
2023/08/14 05:51:45;;;;;;;;;23.67;23.00;;;;;22.38;83.04;100158.50;6280499;20;3600269;-56
2023/08/14 05:54:14;;;;;;;;;25.33;24.33;;;;;22.88;79.92;100152.34;6276621;20;3592960;-56
2023/08/14 05:56:45;;;;;;;;;25.67;23.00;;;;;21.86;83.69;100150.16;6278754;20;3599760;-56
2023/08/14 05:59:14;;;;;;;;;19.67;19.67;;;;;21.61;85.92;100149.88;6278497;20;3578397;-57
2023/08/14 06:01:43;;;;;;;;;20.00;18.00;;;;;21.66;87.04;100160.34;6282038;20;3580470;-57
2023/08/14 06:04:12;;;;;;;;;23.67;23.67;;;;;21.83;86.63;100161.41;6281924;20;3588805;-57
2023/08/14 06:06:40;;;;;;;;;21.67;20.33;;;;;21.63;87.94;100150.59;6281580;20;3573176;-56
2023/08/14 06:09:09;;;;;;;;;21.33;21.00;;;;;22.10;86.06;100157.72;6280207;20;3570233;-54
2023/08/14 06:11:38;;;;;;;;;22.33;20.67;;;;;21.96;84.88;100150.03;6279502;20;3594066;-55
2023/08/14 06:14:07;;;;;;;;;24.67;23.00;;;;;21.79;86.44;100154.50;6280815;20;3592022;-55
2023/08/14 06:16:36;;;;;;;;;20.00;19.33;;;;;22.29;85.41;100156.72;6278690;20;3577457;-55
2023/08/14 06:19:05;;;;;;;;;24.00;21.00;;;;;22.75;83.51;100157.41;6309531;20;3588885;-54
2023/08/14 06:21:34;;;;;;;;;20.33;20.00;;;;;22.62;83.18;100157.81;6277852;20;3585722;-55
2023/08/14 06:24:03;;;;;;;;;21.33;20.33;;;;;22.02;86.17;100163.97;6283532;20;3573177;-56
2023/08/14 06:26:32;;;;;;;;;22.00;22.00;;;;;21.90;87.08;100170.69;6279421;20;3581502;-54
2023/08/14 06:29:01;;;;;;;;;20.33;19.00;;;;;21.91;87.32;100175.16;6279739;20;3575288;-58
2023/08/14 06:31:29;;;;;;;;;23.00;20.33;;;;;22.18;86.36;100170.59;6281189;20;3585706;-55
2023/08/14 06:33:58;;;;;;;;;20.67;20.67;;;;;22.33;84.89;100172.66;6275708;20;3576325;-57
2023/08/14 06:36:27;;;;;;;;;23.00;21.33;;;;;22.24;85.22;100172.72;6277979;20;3584759;-57
2023/08/14 06:38:56;;;;;;;;;22.67;18.00;;;;;22.34;84.96;100176.25;6278410;20;3567967;-55
2023/08/14 06:41:26;;;;;;;;;21.00;20.00;;;;;22.68;84.05;100178.22;6276076;20;3583600;-56
2023/08/14 06:43:55;;;;;;;;;22.00;20.33;;;;;22.97;83.30;100188.88;6277463;20;3587869;-56
2023/08/14 06:46:24;;;;;;;;;21.00;18.67;;;;;23.03;81.25;100182.72;6279850;20;3573232;-54
2023/08/14 06:48:56;;;;;;;;;20.00;20.00;;;;;23.39;81.72;100182.56;6278930;20;3577382;-57
2023/08/14 06:51:25;;;;;;;;;19.00;19.00;;;;;26.92;69.05;100197.91;6277369;20;3581530;-56
2023/08/14 06:53:54;;;;;;;;;20.33;19.33;;;;;31.85;48.66;100223.81;6279033;20;3570052;-56
2023/08/14 06:56:24;;;;;;;;;17.67;16.33;;;;;33.86;42.77;100227.53;6277198;20;3557555;-55
2023/08/14 06:58:53;;;;;;;;;18.00;18.00;;;;;33.46;41.46;100227.13;6276424;20;3575380;-46
2023/08/14 07:01:22;;;;;;;;;17.33;17.33;;;;;34.21;41.51;100238.00;6279793;20;3554567;-55
2023/08/14 07:03:52;;;;;;;;;19.33;18.00;;;;;34.18;39.76;100232.91;6269440;20;3566174;-56
2023/08/14 07:06:22;;;;;;;;;22.33;19.33;;;;;35.51;36.68;100241.00;6301681;20;3570173;-57
2023/08/14 07:08:53;;;;;;;;;17.57;16.71;;;;;35.20;37.92;100233.88;6321148;20;3568168;-57
2023/08/14 07:11:22;;;;;;;;;18.00;18.00;;;;;36.52;35.02;100244.22;6274468;20;3562919;-58
2023/08/14 07:13:50;;;;;;;;;18.00;17.00;;;;;36.72;33.97;100251.31;6277930;20;3557969;-58
2023/08/14 07:16:19;;;;;;;;;16.00;16.00;;;;;34.13;39.96;100237.50;6275158;20;3557736;-53
2023/08/14 07:18:50;;;;;;;;;17.86;17.43;;;;;33.11;42.90;100241.63;6287750;20;3562835;-55
2023/08/14 07:21:19;;;;;;;;;19.50;18.00;;;;;30.32;50.40;100223.97;6270369;20;2813874;-52
2023/08/14 07:23:49;;;;;;;;;19.33;18.33;;;;;30.14;52.14;100220.94;6271059;20;3572179;-55
2023/08/14 07:26:18;;;;;;;;;16.00;15.50;;;;;29.41;54.10;100218.72;6300691;20;2819077;-59
2023/08/14 07:28:46;;;;;;;;;16.33;16.00;;;;;29.42;54.04;100225.94;6270600;20;3553525;-53
2023/08/14 07:31:16;;;;;;;;;15.00;15.00;;;;;29.00;53.84;100224.16;6273802;20;3548218;-54
2023/08/14 07:33:46;;;;;;;;;15.00;15.00;;;;;28.81;52.87;100225.72;6301372;20;3546143;-54
2023/08/14 07:36:14;;;;;;;;;16.50;15.50;;;;;28.96;53.07;100220.06;6302980;20;2820078;-53
2023/08/14 07:38:43;;;;;;;;;13.33;13.33;;;;;28.79;53.68;100225.03;6272622;20;2483765;-55
2023/08/14 07:41:12;;;;;;;;;14.00;13.00;;;;;29.03;52.14;100219.06;6301915;20;3539886;-53
2023/08/14 07:43:40;;;;;;;;;16.33;14.33;;;;;28.70;54.75;100213.28;6303578;20;3551391;-54
2023/08/14 07:46:09;;;;;;;;;14.33;14.00;;;;;28.40;55.05;100212.53;6273393;20;3544127;-55
2023/08/14 07:48:38;;;;;;;;;13.00;13.00;;;;;29.19;51.78;100217.91;6271893;20;3542005;-58
2023/08/14 07:51:09;;;;;;;;;15.67;15.67;;;;;28.96;51.82;100225.59;6302759;20;3553531;-61
2023/08/14 07:53:38;;;;;;;;;12.00;12.00;;;;;29.14;51.80;100225.13;6267700;20;2798228;-58
2023/08/14 07:56:07;;;;;;;;;15.67;15.67;;;;;28.84;52.12;100225.31;6273189;20;3547131;-59
2023/08/14 07:58:37;;;;;;;;;16.00;16.00;;;;;28.66;53.69;100218.34;6266549;20;3555516;-58
2023/08/14 08:01:05;;;;;;;;;17.00;16.00;;;;;29.65;51.78;100222.03;6271992;20;3562827;-58
2023/08/14 08:03:34;;;;;;;;;15.00;15.00;;;;;29.50;50.34;100220.22;6266373;20;2812903;-59
2023/08/14 08:06:03;;;;;;;;;15.33;15.33;;;;;29.50;52.29;100220.22;6270474;20;3548209;-52
2023/08/14 08:08:31;;;;;;;;;12.00;12.00;;;;;29.94;48.83;100224.50;6261357;20;2806593;-56
2023/08/14 08:11:00;;;;;;;;;14.33;14.33;;;;;29.75;49.28;100222.50;6273716;20;3546103;-56
2023/08/14 08:13:29;;;;;;;;;14.67;14.67;;;;;29.62;49.67;100217.75;6272889;20;3545198;-55
2023/08/14 08:15:57;;;;;;;;;16.00;14.33;;;;;30.03;50.30;100224.31;6309442;20;3549218;-56
2023/08/14 08:18:26;;;;;;;;;13.00;13.00;;;;;29.98;47.82;100216.63;6307247;20;3537950;-55
2023/08/14 08:20:55;;;;;;;;;15.00;15.00;;;;;29.20;50.12;100216.00;6306609;20;2812826;-54
2023/08/14 08:23:23;;;;;;;;;16.67;15.00;;;;;29.63;51.14;100218.59;6277462;20;2483711;-52
2023/08/14 08:25:52;;;;;;;;;15.33;14.33;;;;;30.32;50.32;100215.66;6306653;20;3548302;-52
2023/08/14 08:28:21;;;;;;;;;13.00;13.00;;;;;29.98;51.36;100222.16;6306703;20;3529520;-55
2023/08/14 08:30:49;;;;;;;;;16.33;15.67;;;;;29.54;52.12;100215.13;6308696;20;3556945;-58
2023/08/14 08:33:18;;;;;;;;;16.00;14.00;;;;;30.21;45.50;100227.34;6274720;20;2806731;-59
2023/08/14 08:35:54;;;;;;;;;16.67;14.33;;;;;29.46;47.94;100213.38;6273598;20;3547146;-58
2023/08/14 08:38:23;;;;;;;;;13.33;13.33;;;;;29.59;50.58;100222.81;6305943;20;2483634;-59
2023/08/14 08:40:52;;;;;;;;;13.00;13.00;;;;;29.93;48.31;100216.38;6309874;20;3535752;-58
2023/08/14 08:43:23;;;;;;;;;12.67;12.67;;;;;30.67;47.71;100221.03;6307557;20;3535732;-58
2023/08/14 08:45:58;;;;;;;;;13.67;12.67;;;;;30.37;47.09;100213.13;6308000;20;3531656;-58
2023/08/14 08:48:33;;;;;;;;;11.00;11.00;;;;;30.61;46.50;100216.34;6306900;20;3528459;-59
2023/08/14 08:51:02;;;;;;;;;14.33;11.67;;;;;30.15;45.83;100212.41;6304153;20;2483633;-58
2023/08/14 08:53:31;;;;;;;;;12.33;12.33;;;;;30.69;46.85;100207.81;6303844;20;2492077;-58
2023/08/14 08:56:00;;;;;;;;;12.67;12.00;;;;;31.01;43.91;100219.13;6309624;20;3529665;-58
2023/08/14 08:58:30;;;;;;;;;15.00;13.00;;;;;31.24;44.80;100227.84;6314420;20;2599327;-59
2023/08/14 09:00:59;;;;;;;;;13.67;13.67;;;;;31.43;45.09;100215.00;6309740;20;3539003;-59
2023/08/14 09:03:28;;;;;;;;;11.00;8.67;;;;;30.67;42.73;100221.03;6305320;20;3482693;-58
2023/08/14 09:05:57;;;;;;;;;10.50;8.50;;;;;30.58;41.13;100211.22;6313641;20;2771302;-57
2023/08/14 09:08:25;;;;;;;;;11.67;10.33;;;;;30.55;41.47;100229.13;6306591;20;2483596;-58
2023/08/14 09:10:54;;;;;;;;;12.00;12.00;;;;;31.07;42.91;100218.28;6310493;20;2483636;-57
2023/08/14 09:13:23;;;;;;;;;10.33;10.33;;;;;30.95;43.25;100218.06;6310970;20;2483726;-59
2023/08/14 09:16:01;;;;;;;;;13.00;12.00;;;;;31.12;43.46;100217.63;6304762;20;2794239;-59
2023/08/14 09:18:31;;;;;;;;;10.67;10.00;;;;;30.69;41.24;100218.91;6273907;20;3503567;-59
2023/08/14 09:21:03;;;;;;;;;10.67;9.33;;;;;30.86;40.71;100218.50;6274894;20;3497168;-59
2023/08/14 09:23:32;;;;;;;;;9.33;9.33;;;;;30.72;42.25;100207.38;6303180;20;3486878;-56
2023/08/14 09:26:01;;;;;;;;;11.00;11.00;;;;;30.59;42.84;100208.22;6311237;20;2483630;-59
2023/08/14 09:28:30;;;;;;;;;11.67;11.67;;;;;31.05;40.72;100212.09;6312015;20;3531545;-59
2023/08/14 09:31:12;;;;;;;;;10.00;10.00;;;;;31.04;41.33;100207.59;6311163;20;3508731;-59
2023/08/14 09:33:44;;;;;;;;;14.00;12.50;;;;;31.28;41.68;100201.38;6310593;20;2802462;-59
2023/08/14 09:36:13;;;;;;;;;13.00;10.67;;;;;31.14;41.17;100205.22;6273625;20;3508620;-59
2023/08/14 09:38:42;;;;;;;;;11.00;11.00;;;;;31.22;39.54;100205.00;6278898;20;3521226;-59
2023/08/14 09:41:10;;;;;;;;;10.33;10.33;;;;;31.30;40.92;100194.75;6313071;20;2483742;-57
2023/08/14 09:43:40;;;;;;;;;10.00;10.00;;;;;31.17;41.20;100203.94;6312658;20;2483745;-58
2023/08/14 09:46:13;;;;;;;;;9.67;9.67;;;;;30.89;39.84;100185.66;6311434;20;2764857;-57
2023/08/14 09:48:48;;;;;;;;;10.00;10.00;;;;;31.24;41.10;100191.75;6307981;20;2483618;-59
2023/08/14 09:51:18;;;;;;;;;12.00;12.00;;;;;31.41;40.18;100189.41;6310105;20;3511822;-59
2023/08/14 09:53:56;;;;;;;;;11.00;11.00;;;;;31.71;40.44;100188.88;6307663;20;3508730;-58
2023/08/14 09:56:26;;;;;;;;;12.00;12.00;;;;;31.60;41.56;100181.22;6311885;20;2675313;-58
2023/08/14 09:58:55;;;;;;;;;12.00;10.33;;;;;31.80;40.89;100186.69;6307844;20;3507733;-58
2023/08/14 10:01:23;;;;;;;;;9.33;9.33;;;;;31.01;39.78;100188.63;6307374;20;3480524;-59
2023/08/14 10:03:55;;;;;;;;;10.33;10.00;;;;;32.17;38.79;100186.91;6303179;20;3511926;-59
2023/08/14 10:06:25;;;;;;;;;11.00;11.00;;;;;32.07;38.06;100185.50;6305763;20;3505638;-59
2023/08/14 10:08:58;;;;;;;;;14.67;11.00;;;;;31.82;39.66;100188.16;6302790;20;3538468;-58
2023/08/14 10:11:33;;;;;;;;;13.50;11.50;;;;;31.12;40.63;100181.53;6276340;20;2797212;-54
2023/08/14 10:14:06;;;;;;;;;10.67;10.33;;;;;31.17;40.20;100181.75;6280232;20;2483634;-57
2023/08/14 10:16:38;;;;;;;;;11.33;11.33;;;;;31.52;40.99;100182.34;6304635;20;3533606;-56
2023/08/14 10:19:13;;;;;;;;;10.33;10.33;;;;;31.33;42.40;100174.88;6277647;20;3510686;-56
2023/08/14 10:21:45;;;;;;;;;8.33;8.33;;;;;30.95;40.12;100175.63;6311146;20;2750322;-54
2023/08/14 10:24:15;;;;;;;;;12.33;11.33;;;;;30.75;41.10;100172.81;6309669;20;2485699;-56
2023/08/14 10:26:45;;;;;;;;;11.33;10.00;;;;;30.91;41.42;100172.41;6311682;20;2483677;-56
2023/08/14 10:29:16;;;;;;;;;12.33;11.00;;;;;31.77;40.15;100168.53;6304945;20;3499361;-56
2023/08/14 10:31:46;;;;;;;;;11.67;11.00;;;;;32.29;40.13;100174.03;6309742;20;2483693;-54
2023/08/14 10:34:17;;;;;;;;;11.33;10.00;;;;;31.35;40.92;100170.81;6311909;20;2485813;-55
2023/08/14 10:36:53;;;;;;;;;13.00;13.00;;;;;31.03;41.25;100169.84;6309851;20;3536711;-56
2023/08/14 10:39:36;;;;;;;;;11.67;11.33;;;;;31.40;40.38;100165.50;6310536;20;3527364;-56
2023/08/14 10:42:05;;;;;;;;;11.00;11.00;;;;;32.24;39.04;100165.50;6281674;20;3532647;-56
2023/08/14 10:44:37;;;;;;;;;11.00;9.67;;;;;31.85;40.43;100161.88;6314475;20;3496587;-57
2023/08/14 10:47:11;;;;;;;;;10.67;10.67;;;;;31.85;39.20;100151.59;6314993;20;3505455;-56
2023/08/14 10:49:50;;;;;;;;;8.00;8.00;;;;;32.57;39.93;100155.00;6309768;20;2757784;-54
2023/08/14 10:52:20;;;;;;;;;11.00;11.00;;;;;31.44;41.00;100152.03;6306321;20;3516942;-53
2023/08/14 10:54:53;;;;;;;;;13.00;13.00;;;;;30.89;41.46;100146.00;6283818;20;3539881;-56
2023/08/14 10:57:29;;;;;;;;;11.33;11.33;;;;;31.23;40.27;100148.44;6311955;20;3507590;-53
2023/08/14 10:59:58;;;;;;;;;10.00;10.00;;;;;31.50;38.75;100140.06;6315034;20;2487800;-57
2023/08/14 11:02:29;;;;;;;;;10.00;10.00;;;;;31.45;40.84;100142.63;6309811;20;3501430;-56
2023/08/14 11:05:13;;;;;;;;;10.33;10.33;;;;;32.00;39.69;100148.56;6281373;20;3517959;-53
2023/08/14 11:08:05;;;;;;;;;9.33;9.33;;;;;31.63;40.74;100134.44;6310147;20;3478428;-55